sensor_id;sensor_type;location;lat;lon;timestamp;P1;durP1;ratioP1;P2;durP2;ratioP2
31210;SDS011;17836;50.948;3.946;2023-04-09T00:01:08;47.10;;;33.20;;
31210;SDS011;17836;50.948;3.946;2023-04-09T00:03:36;46.47;;;32.47;;
31210;SDS011;17836;50.948;3.946;2023-04-09T00:06:02;48.35;;;32.08;;
31210;SDS011;17836;50.948;3.946;2023-04-09T00:08:28;46.20;;;32.58;;
31210;SDS011;17836;50.948;3.946;2023-04-09T00:10:53;48.65;;;34.83;;
31210;SDS011;17836;50.948;3.946;2023-04-09T00:13:19;46.88;;;32.58;;
31210;SDS011;17836;50.948;3.946;2023-04-09T00:15:45;50.88;;;33.10;;
31210;SDS011;17836;50.948;3.946;2023-04-09T00:18:11;51.25;;;34.88;;
31210;SDS011;17836;50.948;3.946;2023-04-09T00:20:36;54.08;;;34.67;;
31210;SDS011;17836;50.948;3.946;2023-04-09T00:23:01;61.77;;;37.67;;
31210;SDS011;17836;50.948;3.946;2023-04-09T00:25:27;66.45;;;41.13;;
31210;SDS011;17836;50.948;3.946;2023-04-09T00:27:53;232.10;;;53.05;;
31210;SDS011;17836;50.948;3.946;2023-04-09T00:30:18;452.85;;;63.95;;
31210;SDS011;17836;50.948;3.946;2023-04-09T00:32:48;211.63;;;53.55;;
31210;SDS011;17836;50.948;3.946;2023-04-09T00:35:13;147.00;;;48.58;;
31210;SDS011;17836;50.948;3.946;2023-04-09T00:37:40;87.38;;;42.55;;
31210;SDS011;17836;50.948;3.946;2023-04-09T00:40:08;184.15;;;48.42;;
31210;SDS011;17836;50.948;3.946;2023-04-09T00:42:33;66.45;;;38.90;;
31210;SDS011;17836;50.948;3.946;2023-04-09T00:44:59;56.08;;;38.63;;
31210;SDS011;17836;50.948;3.946;2023-04-09T00:47:25;64.50;;;41.72;;
31210;SDS011;17836;50.948;3.946;2023-04-09T00:49:53;56.95;;;36.90;;
31210;SDS011;17836;50.948;3.946;2023-04-09T00:52:19;49.55;;;32.97;;
31210;SDS011;17836;50.948;3.946;2023-04-09T00:54:45;62.00;;;37.00;;
31210;SDS011;17836;50.948;3.946;2023-04-09T00:57:11;57.45;;;34.78;;
31210;SDS011;17836;50.948;3.946;2023-04-09T00:59:37;73.22;;;39.80;;
31210;SDS011;17836;50.948;3.946;2023-04-09T01:02:02;69.15;;;40.28;;
31210;SDS011;17836;50.948;3.946;2023-04-09T01:04:30;69.05;;;38.63;;
31210;SDS011;17836;50.948;3.946;2023-04-09T01:06:58;71.53;;;40.05;;
31210;SDS011;17836;50.948;3.946;2023-04-09T01:09:30;70.68;;;39.58;;
31210;SDS011;17836;50.948;3.946;2023-04-09T01:14:44;75.00;;;41.80;;
31210;SDS011;17836;50.948;3.946;2023-04-09T01:17:14;71.00;;;41.13;;
31210;SDS011;17836;50.948;3.946;2023-04-09T01:19:47;63.92;;;38.55;;
31210;SDS011;17836;50.948;3.946;2023-04-09T01:25:02;55.30;;;35.38;;
31210;SDS011;17836;50.948;3.946;2023-04-09T01:27:36;48.50;;;35.42;;
31210;SDS011;17836;50.948;3.946;2023-04-09T01:30:03;51.90;;;34.67;;
31210;SDS011;17836;50.948;3.946;2023-04-09T01:32:29;52.25;;;33.78;;
31210;SDS011;17836;50.948;3.946;2023-04-09T01:34:56;48.35;;;33.17;;
31210;SDS011;17836;50.948;3.946;2023-04-09T01:37:22;51.75;;;32.58;;
31210;SDS011;17836;50.948;3.946;2023-04-09T01:39:47;48.42;;;32.80;;
31210;SDS011;17836;50.948;3.946;2023-04-09T01:42:13;47.60;;;32.60;;
31210;SDS011;17836;50.948;3.946;2023-04-09T01:44:40;37.15;;;29.15;;
31210;SDS011;17836;50.948;3.946;2023-04-09T01:47:06;39.78;;;30.63;;
31210;SDS011;17836;50.948;3.946;2023-04-09T01:49:32;40.15;;;31.30;;
31210;SDS011;17836;50.948;3.946;2023-04-09T01:51:58;40.92;;;30.08;;
31210;SDS011;17836;50.948;3.946;2023-04-09T01:54:23;33.65;;;28.13;;
31210;SDS011;17836;50.948;3.946;2023-04-09T01:56:51;35.90;;;28.67;;
31210;SDS011;17836;50.948;3.946;2023-04-09T01:59:16;43.22;;;29.83;;
31210;SDS011;17836;50.948;3.946;2023-04-09T02:04:09;42.33;;;30.83;;
31210;SDS011;17836;50.948;3.946;2023-04-09T02:09:02;44.73;;;31.23;;
31210;SDS011;17836;50.948;3.946;2023-04-09T02:11:30;47.10;;;32.17;;
31210;SDS011;17836;50.948;3.946;2023-04-09T02:13:57;41.45;;;31.13;;
31210;SDS011;17836;50.948;3.946;2023-04-09T02:16:23;34.58;;;25.25;;
31210;SDS011;17836;50.948;3.946;2023-04-09T02:18:52;32.45;;;25.45;;
31210;SDS011;17836;50.948;3.946;2023-04-09T02:21:18;36.45;;;25.70;;
31210;SDS011;17836;50.948;3.946;2023-04-09T02:23:44;34.80;;;24.50;;
31210;SDS011;17836;50.948;3.946;2023-04-09T02:26:11;34.45;;;26.25;;
31210;SDS011;17836;50.948;3.946;2023-04-09T02:28:37;38.75;;;27.00;;
31210;SDS011;17836;50.948;3.946;2023-04-09T02:31:02;41.00;;;28.35;;
31210;SDS011;17836;50.948;3.946;2023-04-09T02:33:30;41.40;;;29.33;;
31210;SDS011;17836;50.948;3.946;2023-04-09T02:35:55;41.73;;;29.93;;
31210;SDS011;17836;50.948;3.946;2023-04-09T02:38:20;48.30;;;32.03;;
31210;SDS011;17836;50.948;3.946;2023-04-09T02:40:46;46.80;;;31.67;;
31210;SDS011;17836;50.948;3.946;2023-04-09T02:43:11;48.43;;;32.57;;
31210;SDS011;17836;50.948;3.946;2023-04-09T02:45:36;43.25;;;30.38;;
31210;SDS011;17836;50.948;3.946;2023-04-09T02:48:01;39.80;;;29.35;;
31210;SDS011;17836;50.948;3.946;2023-04-09T02:50:27;45.50;;;29.70;;
31210;SDS011;17836;50.948;3.946;2023-04-09T02:52:52;43.78;;;29.10;;
31210;SDS011;17836;50.948;3.946;2023-04-09T02:55:17;40.20;;;28.43;;
31210;SDS011;17836;50.948;3.946;2023-04-09T02:57:43;41.03;;;29.13;;
31210;SDS011;17836;50.948;3.946;2023-04-09T03:00:08;40.45;;;29.13;;
31210;SDS011;17836;50.948;3.946;2023-04-09T03:02:34;42.90;;;30.38;;
31210;SDS011;17836;50.948;3.946;2023-04-09T03:04:59;42.38;;;29.48;;
31210;SDS011;17836;50.948;3.946;2023-04-09T03:07:25;44.45;;;29.27;;
31210;SDS011;17836;50.948;3.946;2023-04-09T03:09:50;38.58;;;27.67;;
31210;SDS011;17836;50.948;3.946;2023-04-09T03:12:15;39.10;;;28.05;;
31210;SDS011;17836;50.948;3.946;2023-04-09T03:14:45;40.03;;;28.42;;
31210;SDS011;17836;50.948;3.946;2023-04-09T03:17:10;41.10;;;29.38;;
31210;SDS011;17836;50.948;3.946;2023-04-09T03:19:36;40.55;;;28.75;;
31210;SDS011;17836;50.948;3.946;2023-04-09T03:22:03;39.55;;;28.15;;
31210;SDS011;17836;50.948;3.946;2023-04-09T03:24:30;43.37;;;30.87;;
31210;SDS011;17836;50.948;3.946;2023-04-09T03:26:55;38.80;;;27.85;;
31210;SDS011;17836;50.948;3.946;2023-04-09T03:29:21;39.30;;;28.20;;
31210;SDS011;17836;50.948;3.946;2023-04-09T03:31:46;37.22;;;26.17;;
31210;SDS011;17836;50.948;3.946;2023-04-09T03:34:11;39.80;;;28.70;;
31210;SDS011;17836;50.948;3.946;2023-04-09T03:36:37;37.95;;;28.00;;
31210;SDS011;17836;50.948;3.946;2023-04-09T03:39:02;36.13;;;26.88;;
31210;SDS011;17836;50.948;3.946;2023-04-09T03:41:27;34.90;;;25.23;;
31210;SDS011;17836;50.948;3.946;2023-04-09T03:43:53;37.47;;;26.33;;
31210;SDS011;17836;50.948;3.946;2023-04-09T03:46:20;30.98;;;24.10;;
31210;SDS011;17836;50.948;3.946;2023-04-09T03:48:45;29.88;;;22.60;;
31210;SDS011;17836;50.948;3.946;2023-04-09T03:51:16;35.63;;;24.58;;
31210;SDS011;17836;50.948;3.946;2023-04-09T03:53:42;32.17;;;23.17;;
31210;SDS011;17836;50.948;3.946;2023-04-09T03:56:07;27.60;;;20.48;;
31210;SDS011;17836;50.948;3.946;2023-04-09T03:58:33;32.90;;;23.48;;
31210;SDS011;17836;50.948;3.946;2023-04-09T04:00:58;31.02;;;23.15;;
31210;SDS011;17836;50.948;3.946;2023-04-09T04:03:23;38.45;;;27.38;;
31210;SDS011;17836;50.948;3.946;2023-04-09T04:05:51;39.90;;;28.83;;
31210;SDS011;17836;50.948;3.946;2023-04-09T04:08:16;38.53;;;28.20;;
31210;SDS011;17836;50.948;3.946;2023-04-09T04:10:42;35.67;;;26.83;;
31210;SDS011;17836;50.948;3.946;2023-04-09T04:13:07;35.35;;;26.55;;
31210;SDS011;17836;50.948;3.946;2023-04-09T04:15:33;37.50;;;26.33;;
31210;SDS011;17836;50.948;3.946;2023-04-09T04:18:00;39.35;;;27.02;;
31210;SDS011;17836;50.948;3.946;2023-04-09T04:20:25;38.42;;;27.17;;
31210;SDS011;17836;50.948;3.946;2023-04-09T04:22:53;41.00;;;29.35;;
31210;SDS011;17836;50.948;3.946;2023-04-09T04:25:18;40.50;;;28.42;;
31210;SDS011;17836;50.948;3.946;2023-04-09T04:27:46;36.07;;;26.50;;
31210;SDS011;17836;50.948;3.946;2023-04-09T04:30:11;36.78;;;27.50;;
31210;SDS011;17836;50.948;3.946;2023-04-09T04:32:36;36.20;;;26.23;;
31210;SDS011;17836;50.948;3.946;2023-04-09T04:35:01;35.20;;;26.08;;
31210;SDS011;17836;50.948;3.946;2023-04-09T04:37:27;33.58;;;25.15;;
31210;SDS011;17836;50.948;3.946;2023-04-09T04:39:52;34.70;;;25.98;;
31210;SDS011;17836;50.948;3.946;2023-04-09T04:42:19;36.28;;;25.98;;
31210;SDS011;17836;50.948;3.946;2023-04-09T04:44:45;34.55;;;25.27;;
31210;SDS011;17836;50.948;3.946;2023-04-09T04:47:12;37.13;;;27.20;;
31210;SDS011;17836;50.948;3.946;2023-04-09T04:49:38;30.30;;;24.20;;
31210;SDS011;17836;50.948;3.946;2023-04-09T04:52:03;30.55;;;23.17;;
31210;SDS011;17836;50.948;3.946;2023-04-09T04:54:28;31.83;;;23.65;;
31210;SDS011;17836;50.948;3.946;2023-04-09T04:56:56;33.50;;;24.83;;
31210;SDS011;17836;50.948;3.946;2023-04-09T04:59:21;39.65;;;27.42;;
31210;SDS011;17836;50.948;3.946;2023-04-09T05:01:49;35.58;;;26.23;;
31210;SDS011;17836;50.948;3.946;2023-04-09T05:04:14;37.17;;;26.15;;
31210;SDS011;17836;50.948;3.946;2023-04-09T05:06:40;35.83;;;24.75;;
31210;SDS011;17836;50.948;3.946;2023-04-09T05:09:05;31.03;;;23.50;;
31210;SDS011;17836;50.948;3.946;2023-04-09T05:11:30;31.80;;;23.15;;
31210;SDS011;17836;50.948;3.946;2023-04-09T05:13:56;33.50;;;22.30;;
31210;SDS011;17836;50.948;3.946;2023-04-09T05:16:21;29.77;;;22.97;;
31210;SDS011;17836;50.948;3.946;2023-04-09T05:18:46;34.20;;;23.07;;
31210;SDS011;17836;50.948;3.946;2023-04-09T05:21:11;33.53;;;24.13;;
31210;SDS011;17836;50.948;3.946;2023-04-09T05:23:37;35.45;;;24.42;;
31210;SDS011;17836;50.948;3.946;2023-04-09T05:26:02;33.93;;;24.07;;
31210;SDS011;17836;50.948;3.946;2023-04-09T05:28:27;39.42;;;24.38;;
31210;SDS011;17836;50.948;3.946;2023-04-09T05:30:53;36.08;;;24.88;;
31210;SDS011;17836;50.948;3.946;2023-04-09T05:33:18;33.20;;;25.10;;
31210;SDS011;17836;50.948;3.946;2023-04-09T05:35:43;34.67;;;25.95;;
31210;SDS011;17836;50.948;3.946;2023-04-09T05:38:09;32.10;;;24.45;;
31210;SDS011;17836;50.948;3.946;2023-04-09T05:40:35;37.78;;;26.85;;
31210;SDS011;17836;50.948;3.946;2023-04-09T05:43:00;40.40;;;26.05;;
31210;SDS011;17836;50.948;3.946;2023-04-09T05:45:25;32.92;;;25.75;;
31210;SDS011;17836;50.948;3.946;2023-04-09T05:47:53;39.08;;;25.33;;
31210;SDS011;17836;50.948;3.946;2023-04-09T05:50:18;34.50;;;25.17;;
31210;SDS011;17836;50.948;3.946;2023-04-09T05:52:44;36.15;;;26.42;;
31210;SDS011;17836;50.948;3.946;2023-04-09T05:55:09;37.60;;;25.63;;
31210;SDS011;17836;50.948;3.946;2023-04-09T05:57:35;38.60;;;27.30;;
31210;SDS011;17836;50.948;3.946;2023-04-09T06:00:00;40.90;;;27.90;;
31210;SDS011;17836;50.948;3.946;2023-04-09T06:02:26;38.67;;;26.70;;
31210;SDS011;17836;50.948;3.946;2023-04-09T06:04:51;39.45;;;28.02;;
31210;SDS011;17836;50.948;3.946;2023-04-09T06:07:16;40.92;;;28.52;;
31210;SDS011;17836;50.948;3.946;2023-04-09T06:09:42;38.22;;;27.83;;
31210;SDS011;17836;50.948;3.946;2023-04-09T06:12:11;40.13;;;28.63;;
31210;SDS011;17836;50.948;3.946;2023-04-09T06:14:38;39.92;;;27.95;;
31210;SDS011;17836;50.948;3.946;2023-04-09T06:17:06;33.73;;;26.63;;
31210;SDS011;17836;50.948;3.946;2023-04-09T06:19:31;37.05;;;26.42;;
31210;SDS011;17836;50.948;3.946;2023-04-09T06:21:59;37.63;;;26.95;;
31210;SDS011;17836;50.948;3.946;2023-04-09T06:24:24;38.53;;;27.92;;
31210;SDS011;17836;50.948;3.946;2023-04-09T06:26:54;47.40;;;33.83;;
31210;SDS011;17836;50.948;3.946;2023-04-09T06:29:19;52.13;;;36.30;;
31210;SDS011;17836;50.948;3.946;2023-04-09T06:31:47;53.25;;;37.13;;
31210;SDS011;17836;50.948;3.946;2023-04-09T06:34:12;56.58;;;37.38;;
31210;SDS011;17836;50.948;3.946;2023-04-09T06:36:38;49.87;;;35.47;;
31210;SDS011;17836;50.948;3.946;2023-04-09T06:39:04;54.88;;;36.92;;
31210;SDS011;17836;50.948;3.946;2023-04-09T06:41:29;51.22;;;35.58;;
31210;SDS011;17836;50.948;3.946;2023-04-09T06:43:55;46.53;;;32.53;;
31210;SDS011;17836;50.948;3.946;2023-04-09T06:46:20;50.13;;;33.30;;
31210;SDS011;17836;50.948;3.946;2023-04-09T06:48:45;49.33;;;34.22;;
31210;SDS011;17836;50.948;3.946;2023-04-09T06:51:11;58.88;;;39.83;;
31210;SDS011;17836;50.948;3.946;2023-04-09T06:53:36;69.63;;;45.35;;
31210;SDS011;17836;50.948;3.946;2023-04-09T06:56:11;65.00;;;41.63;;
31210;SDS011;17836;50.948;3.946;2023-04-09T06:58:38;69.47;;;42.03;;
31210;SDS011;17836;50.948;3.946;2023-04-09T07:01:06;67.05;;;43.20;;
31210;SDS011;17836;50.948;3.946;2023-04-09T07:03:31;73.60;;;44.80;;
31210;SDS011;17836;50.948;3.946;2023-04-09T07:05:59;74.50;;;47.20;;
31210;SDS011;17836;50.948;3.946;2023-04-09T07:08:24;79.22;;;47.60;;
31210;SDS011;17836;50.948;3.946;2023-04-09T07:10:50;84.07;;;45.05;;
31210;SDS011;17836;50.948;3.946;2023-04-09T07:13:15;73.32;;;47.03;;
31210;SDS011;17836;50.948;3.946;2023-04-09T07:15:41;77.50;;;47.25;;
31210;SDS011;17836;50.948;3.946;2023-04-09T07:18:06;73.18;;;46.13;;
31210;SDS011;17836;50.948;3.946;2023-04-09T07:20:34;72.45;;;48.10;;
31210;SDS011;17836;50.948;3.946;2023-04-09T07:22:59;73.60;;;47.22;;
31210;SDS011;17836;50.948;3.946;2023-04-09T07:25:25;73.63;;;47.58;;
31210;SDS011;17836;50.948;3.946;2023-04-09T07:27:50;71.90;;;43.72;;
31210;SDS011;17836;50.948;3.946;2023-04-09T07:30:18;71.50;;;45.47;;
31210;SDS011;17836;50.948;3.946;2023-04-09T07:32:43;71.07;;;45.97;;
31210;SDS011;17836;50.948;3.946;2023-04-09T07:35:11;71.53;;;43.65;;
31210;SDS011;17836;50.948;3.946;2023-04-09T07:37:37;68.20;;;44.85;;
31210;SDS011;17836;50.948;3.946;2023-04-09T07:40:02;69.07;;;45.78;;
31210;SDS011;17836;50.948;3.946;2023-04-09T07:42:28;64.35;;;43.80;;
31210;SDS011;17836;50.948;3.946;2023-04-09T07:44:53;69.63;;;43.70;;
31210;SDS011;17836;50.948;3.946;2023-04-09T07:47:21;65.53;;;42.47;;
31210;SDS011;17836;50.948;3.946;2023-04-09T07:49:49;61.28;;;42.63;;
31210;SDS011;17836;50.948;3.946;2023-04-09T07:52:14;62.42;;;42.58;;
31210;SDS011;17836;50.948;3.946;2023-04-09T07:54:39;64.25;;;42.55;;
31210;SDS011;17836;50.948;3.946;2023-04-09T07:57:05;65.30;;;43.88;;
31210;SDS011;17836;50.948;3.946;2023-04-09T07:59:33;60.92;;;41.38;;
31210;SDS011;17836;50.948;3.946;2023-04-09T08:01:58;59.55;;;40.65;;
31210;SDS011;17836;50.948;3.946;2023-04-09T08:04:23;61.10;;;39.67;;
31210;SDS011;17836;50.948;3.946;2023-04-09T08:06:54;62.88;;;41.95;;
31210;SDS011;17836;50.948;3.946;2023-04-09T08:09:22;57.63;;;38.93;;
31210;SDS011;17836;50.948;3.946;2023-04-09T08:11:47;58.60;;;39.37;;
31210;SDS011;17836;50.948;3.946;2023-04-09T08:14:13;51.47;;;35.42;;
31210;SDS011;17836;50.948;3.946;2023-04-09T08:16:39;56.42;;;38.22;;
31210;SDS011;17836;50.948;3.946;2023-04-09T08:19:05;54.50;;;35.63;;
31210;SDS011;17836;50.948;3.946;2023-04-09T08:21:30;54.10;;;36.85;;
31210;SDS011;17836;50.948;3.946;2023-04-09T08:23:56;52.33;;;36.92;;
31210;SDS011;17836;50.948;3.946;2023-04-09T08:26:25;52.65;;;38.08;;
31210;SDS011;17836;50.948;3.946;2023-04-09T08:28:50;54.37;;;35.80;;
31210;SDS011;17836;50.948;3.946;2023-04-09T08:31:18;54.78;;;36.10;;
31210;SDS011;17836;50.948;3.946;2023-04-09T08:33:43;51.90;;;35.55;;
31210;SDS011;17836;50.948;3.946;2023-04-09T08:36:11;51.63;;;35.90;;
31210;SDS011;17836;50.948;3.946;2023-04-09T08:38:36;53.88;;;36.90;;
31210;SDS011;17836;50.948;3.946;2023-04-09T08:41:01;51.37;;;36.23;;
31210;SDS011;17836;50.948;3.946;2023-04-09T08:43:26;58.97;;;37.77;;
31210;SDS011;17836;50.948;3.946;2023-04-09T08:45:52;51.50;;;35.85;;
31210;SDS011;17836;50.948;3.946;2023-04-09T08:48:24;52.47;;;36.90;;
31210;SDS011;17836;50.948;3.946;2023-04-09T08:50:52;50.38;;;34.67;;
31210;SDS011;17836;50.948;3.946;2023-04-09T08:53:17;51.03;;;36.75;;
31210;SDS011;17836;50.948;3.946;2023-04-09T08:55:46;48.95;;;35.17;;
31210;SDS011;17836;50.948;3.946;2023-04-09T08:58:11;48.85;;;33.90;;
31210;SDS011;17836;50.948;3.946;2023-04-09T09:00:39;46.22;;;32.85;;
31210;SDS011;17836;50.948;3.946;2023-04-09T09:03:05;48.47;;;34.83;;
31210;SDS011;17836;50.948;3.946;2023-04-09T09:08:02;42.30;;;31.67;;
31210;SDS011;17836;50.948;3.946;2023-04-09T09:10:38;45.92;;;33.42;;
31210;SDS011;17836;50.948;3.946;2023-04-09T09:15:45;43.50;;;30.42;;
31210;SDS011;17836;50.948;3.946;2023-04-09T09:18:11;47.22;;;32.90;;
31210;SDS011;17836;50.948;3.946;2023-04-09T09:20:37;42.85;;;31.83;;
31210;SDS011;17836;50.948;3.946;2023-04-09T09:23:02;43.47;;;31.27;;
31210;SDS011;17836;50.948;3.946;2023-04-09T09:25:27;47.27;;;33.27;;
31210;SDS011;17836;50.948;3.946;2023-04-09T09:27:54;44.95;;;32.75;;
31210;SDS011;17836;50.948;3.946;2023-04-09T09:30:30;45.15;;;31.98;;
31210;SDS011;17836;50.948;3.946;2023-04-09T09:33:06;42.95;;;31.38;;
31210;SDS011;17836;50.948;3.946;2023-04-09T09:35:45;44.78;;;32.80;;
31210;SDS011;17836;50.948;3.946;2023-04-09T09:38:11;48.03;;;33.53;;
31210;SDS011;17836;50.948;3.946;2023-04-09T09:40:38;45.97;;;32.30;;
31210;SDS011;17836;50.948;3.946;2023-04-09T09:43:06;40.80;;;30.25;;
31210;SDS011;17836;50.948;3.946;2023-04-09T09:45:31;49.27;;;34.13;;
31210;SDS011;17836;50.948;3.946;2023-04-09T09:47:57;44.88;;;31.80;;
31210;SDS011;17836;50.948;3.946;2023-04-09T09:50:25;43.35;;;31.83;;
31210;SDS011;17836;50.948;3.946;2023-04-09T09:52:53;42.90;;;31.95;;
31210;SDS011;17836;50.948;3.946;2023-04-09T09:55:22;48.08;;;32.85;;
31210;SDS011;17836;50.948;3.946;2023-04-09T09:57:48;43.72;;;32.15;;
31210;SDS011;17836;50.948;3.946;2023-04-09T10:00:14;39.45;;;27.98;;
31210;SDS011;17836;50.948;3.946;2023-04-09T10:02:43;46.13;;;30.20;;
31210;SDS011;17836;50.948;3.946;2023-04-09T10:05:12;37.33;;;28.52;;
31210;SDS011;17836;50.948;3.946;2023-04-09T10:07:37;40.75;;;29.77;;
31210;SDS011;17836;50.948;3.946;2023-04-09T10:10:03;38.10;;;29.15;;
31210;SDS011;17836;50.948;3.946;2023-04-09T10:12:29;44.03;;;29.48;;
31210;SDS011;17836;50.948;3.946;2023-04-09T10:14:55;40.97;;;29.10;;
31210;SDS011;17836;50.948;3.946;2023-04-09T10:17:21;40.42;;;28.13;;
31210;SDS011;17836;50.948;3.946;2023-04-09T10:20:21;37.70;;;27.70;;
31210;SDS011;17836;50.948;3.946;2023-04-09T10:22:38;38.28;;;28.30;;
31210;SDS011;17836;50.948;3.946;2023-04-09T10:25:04;38.85;;;27.35;;
31210;SDS011;17836;50.948;3.946;2023-04-09T10:27:30;30.77;;;22.17;;
31210;SDS011;17836;50.948;3.946;2023-04-09T10:29:56;24.13;;;20.15;;
31210;SDS011;17836;50.948;3.946;2023-04-09T10:32:21;25.30;;;20.48;;
31210;SDS011;17836;50.948;3.946;2023-04-09T10:34:50;27.33;;;20.02;;
31210;SDS011;17836;50.948;3.946;2023-04-09T10:37:25;21.65;;;18.27;;
31210;SDS011;17836;50.948;3.946;2023-04-09T10:39:50;23.10;;;19.38;;
31210;SDS011;17836;50.948;3.946;2023-04-09T10:42:21;23.73;;;19.17;;
31210;SDS011;17836;50.948;3.946;2023-04-09T10:45:30;19.35;;;17.00;;
31210;SDS011;17836;50.948;3.946;2023-04-09T10:47:38;26.05;;;19.02;;
31210;SDS011;17836;50.948;3.946;2023-04-09T10:52:39;24.90;;;19.27;;
31210;SDS011;17836;50.948;3.946;2023-04-09T10:55:08;27.48;;;18.73;;
31210;SDS011;17836;50.948;3.946;2023-04-09T10:57:33;26.13;;;19.73;;
31210;SDS011;17836;50.948;3.946;2023-04-09T10:59:58;26.67;;;20.57;;
31210;SDS011;17836;50.948;3.946;2023-04-09T11:07:26;25.98;;;20.88;;
31210;SDS011;17836;50.948;3.946;2023-04-09T11:09:52;25.58;;;19.80;;
31210;SDS011;17836;50.948;3.946;2023-04-09T11:12:17;25.92;;;20.23;;
31210;SDS011;17836;50.948;3.946;2023-04-09T11:14:42;19.67;;;17.00;;
31210;SDS011;17836;50.948;3.946;2023-04-09T11:17:08;24.05;;;19.35;;
31210;SDS011;17836;50.948;3.946;2023-04-09T11:19:33;22.83;;;18.63;;
31210;SDS011;17836;50.948;3.946;2023-04-09T11:21:58;22.00;;;17.88;;
31210;SDS011;17836;50.948;3.946;2023-04-09T11:24:24;23.58;;;18.77;;
31210;SDS011;17836;50.948;3.946;2023-04-09T11:26:49;23.60;;;19.15;;
31210;SDS011;17836;50.948;3.946;2023-04-09T11:29:15;18.88;;;16.55;;
31210;SDS011;17836;50.948;3.946;2023-04-09T11:31:43;21.70;;;16.70;;
31210;SDS011;17836;50.948;3.946;2023-04-09T11:34:09;17.40;;;15.55;;
31210;SDS011;17836;50.948;3.946;2023-04-09T11:36:37;18.92;;;16.92;;
31210;SDS011;17836;50.948;3.946;2023-04-09T11:39:03;22.42;;;17.70;;
31210;SDS011;17836;50.948;3.946;2023-04-09T11:41:34;20.67;;;16.90;;
31210;SDS011;17836;50.948;3.946;2023-04-09T11:44:19;27.58;;;20.75;;
31210;SDS011;17836;50.948;3.946;2023-04-09T11:46:44;26.23;;;19.15;;
31210;SDS011;17836;50.948;3.946;2023-04-09T11:49:10;19.08;;;16.85;;
31210;SDS011;17836;50.948;3.946;2023-04-09T11:51:37;17.85;;;14.60;;
31210;SDS011;17836;50.948;3.946;2023-04-09T11:54:06;16.65;;;13.95;;
31210;SDS011;17836;50.948;3.946;2023-04-09T11:56:34;20.70;;;15.32;;
31210;SDS011;17836;50.948;3.946;2023-04-09T11:59:00;22.50;;;15.48;;
31210;SDS011;17836;50.948;3.946;2023-04-09T12:01:29;21.20;;;16.58;;
31210;SDS011;17836;50.948;3.946;2023-04-09T12:03:55;19.40;;;15.93;;
31210;SDS011;17836;50.948;3.946;2023-04-09T12:06:21;18.70;;;15.73;;
31210;SDS011;17836;50.948;3.946;2023-04-09T12:08:47;19.63;;;16.73;;
31210;SDS011;17836;50.948;3.946;2023-04-09T12:11:16;17.02;;;15.23;;
31210;SDS011;17836;50.948;3.946;2023-04-09T12:13:41;19.73;;;15.60;;
31210;SDS011;17836;50.948;3.946;2023-04-09T12:16:08;17.63;;;14.30;;
31210;SDS011;17836;50.948;3.946;2023-04-09T12:18:37;16.88;;;15.07;;
31210;SDS011;17836;50.948;3.946;2023-04-09T12:21:03;17.55;;;14.73;;
31210;SDS011;17836;50.948;3.946;2023-04-09T12:23:29;19.13;;;16.05;;
31210;SDS011;17836;50.948;3.946;2023-04-09T12:28:27;16.85;;;14.60;;
31210;SDS011;17836;50.948;3.946;2023-04-09T12:30:53;16.20;;;14.50;;
31210;SDS011;17836;50.948;3.946;2023-04-09T12:33:19;20.73;;;16.77;;
31210;SDS011;17836;50.948;3.946;2023-04-09T12:35:45;17.85;;;15.10;;
31210;SDS011;17836;50.948;3.946;2023-04-09T12:38:10;20.48;;;17.45;;
31210;SDS011;17836;50.948;3.946;2023-04-09T12:40:35;20.95;;;16.55;;
31210;SDS011;17836;50.948;3.946;2023-04-09T12:43:01;17.42;;;14.98;;
31210;SDS011;17836;50.948;3.946;2023-04-09T12:45:27;18.02;;;15.55;;
31210;SDS011;17836;50.948;3.946;2023-04-09T12:47:53;15.43;;;13.82;;
31210;SDS011;17836;50.948;3.946;2023-04-09T12:50:18;16.23;;;14.43;;
31210;SDS011;17836;50.948;3.946;2023-04-09T12:52:44;14.43;;;12.93;;
31210;SDS011;17836;50.948;3.946;2023-04-09T12:55:13;16.42;;;14.13;;
31210;SDS011;17836;50.948;3.946;2023-04-09T12:57:38;15.20;;;13.60;;
31210;SDS011;17836;50.948;3.946;2023-04-09T13:00:04;16.20;;;13.85;;
31210;SDS011;17836;50.948;3.946;2023-04-09T13:02:30;17.63;;;13.98;;
31210;SDS011;17836;50.948;3.946;2023-04-09T13:04:55;16.23;;;13.55;;
31210;SDS011;17836;50.948;3.946;2023-04-09T13:07:21;13.02;;;11.80;;
31210;SDS011;17836;50.948;3.946;2023-04-09T13:09:47;13.38;;;11.98;;
31210;SDS011;17836;50.948;3.946;2023-04-09T13:12:15;14.82;;;13.30;;
31210;SDS011;17836;50.948;3.946;2023-04-09T13:14:44;15.25;;;13.48;;
31210;SDS011;17836;50.948;3.946;2023-04-09T13:17:10;13.77;;;12.38;;
31210;SDS011;17836;50.948;3.946;2023-04-09T13:19:38;14.07;;;12.60;;
31210;SDS011;17836;50.948;3.946;2023-04-09T13:22:03;18.17;;;14.63;;
31210;SDS011;17836;50.948;3.946;2023-04-09T13:24:32;15.20;;;13.52;;
31210;SDS011;17836;50.948;3.946;2023-04-09T13:26:57;16.27;;;13.35;;
31210;SDS011;17836;50.948;3.946;2023-04-09T13:29:22;13.60;;;11.87;;
31210;SDS011;17836;50.948;3.946;2023-04-09T13:31:52;13.80;;;12.40;;
31210;SDS011;17836;50.948;3.946;2023-04-09T13:34:17;13.48;;;12.02;;
31210;SDS011;17836;50.948;3.946;2023-04-09T13:36:45;13.15;;;11.18;;
31210;SDS011;17836;50.948;3.946;2023-04-09T13:39:10;12.07;;;10.87;;
31210;SDS011;17836;50.948;3.946;2023-04-09T13:41:35;13.73;;;12.33;;
31210;SDS011;17836;50.948;3.946;2023-04-09T13:44:02;14.60;;;13.10;;
31210;SDS011;17836;50.948;3.946;2023-04-09T13:46:27;13.45;;;12.07;;
31210;SDS011;17836;50.948;3.946;2023-04-09T13:48:53;12.82;;;11.52;;
31210;SDS011;17836;50.948;3.946;2023-04-09T13:51:24;13.15;;;11.27;;
31210;SDS011;17836;50.948;3.946;2023-04-09T13:53:51;13.63;;;12.27;;
31210;SDS011;17836;50.948;3.946;2023-04-09T13:56:16;13.43;;;12.05;;
31210;SDS011;17836;50.948;3.946;2023-04-09T13:58:42;11.77;;;10.67;;
31210;SDS011;17836;50.948;3.946;2023-04-09T14:01:07;12.55;;;11.35;;
31210;SDS011;17836;50.948;3.946;2023-04-09T14:03:33;13.65;;;12.25;;
31210;SDS011;17836;50.948;3.946;2023-04-09T14:05:58;11.68;;;10.38;;
31210;SDS011;17836;50.948;3.946;2023-04-09T14:08:23;12.67;;;10.33;;
31210;SDS011;17836;50.948;3.946;2023-04-09T14:10:49;13.55;;;12.13;;
31210;SDS011;17836;50.948;3.946;2023-04-09T14:13:17;11.90;;;10.68;;
31210;SDS011;17836;50.948;3.946;2023-04-09T14:15:42;11.07;;;9.97;;
31210;SDS011;17836;50.948;3.946;2023-04-09T14:18:09;11.25;;;10.25;;
31210;SDS011;17836;50.948;3.946;2023-04-09T14:20:37;10.77;;;9.68;;
31210;SDS011;17836;50.948;3.946;2023-04-09T14:23:02;10.80;;;9.70;;
31210;SDS011;17836;50.948;3.946;2023-04-09T14:25:27;10.60;;;9.60;;
31210;SDS011;17836;50.948;3.946;2023-04-09T14:27:53;9.30;;;8.43;;
31210;SDS011;17836;50.948;3.946;2023-04-09T14:30:21;9.53;;;8.40;;
31210;SDS011;17836;50.948;3.946;2023-04-09T14:32:46;10.73;;;9.63;;
31210;SDS011;17836;50.948;3.946;2023-04-09T14:35:11;11.30;;;10.20;;
31210;SDS011;17836;50.948;3.946;2023-04-09T14:37:37;10.73;;;9.63;;
31210;SDS011;17836;50.948;3.946;2023-04-09T14:40:06;10.93;;;9.93;;
31210;SDS011;17836;50.948;3.946;2023-04-09T14:42:32;10.38;;;8.38;;